American Lake, Washington
Current Conditions -  °F | °C
As of 7:58 PM on Tuesday 27 Jan 2015 (Local Time) from KGRF Reporting Station
Overcast Overcast  
Wind Chill: 50°   Ceiling: 2100
Heat Index: 50°   Visibility: 10mi
Dew Point: 50°   Wind: 6mph
Humidity: 99%   Direction: 190°S
Pressure: 30.18"   Gusts: NA
Location:  47.1451°N, 122.578°W
Report Text: KGRF 280358Z AUTO 19005KT 10SM OVC021 10/10 A3018 RMK AO2 SLP225 P0001 T01000099 $
Loading
Personal Weather Stations






























Interactive Weather Map New forecast layout! Learn more

10-Day Weather Forecast

Advertisements
Track Severe Weather on mobile